sensor_id;sensor_type;location;lat;lon;timestamp;temperature;humidity
65369;HTU21D;51970;53.484;49.488;2023-05-07T00:01:03;6.40;62.37
65369;HTU21D;51970;53.484;49.488;2023-05-07T00:03:32;6.33;61.99
65369;HTU21D;51970;53.484;49.488;2023-05-07T00:05:58;6.31;61.57
65369;HTU21D;51970;53.484;49.488;2023-05-07T00:08:27;6.31;61.02
65369;HTU21D;51970;53.484;49.488;2023-05-07T00:10:53;6.26;60.85
65369;HTU21D;51970;53.484;49.488;2023-05-07T00:13:19;6.23;60.81
65369;HTU21D;51970;53.484;49.488;2023-05-07T00:15:45;6.19;60.38
65369;HTU21D;51970;53.484;49.488;2023-05-07T00:18:12;6.16;60.02
65369;HTU21D;51970;53.484;49.488;2023-05-07T00:20:38;6.12;60.10
65369;HTU21D;51970;53.484;49.488;2023-05-07T00:23:04;6.09;60.47
65369;HTU21D;51970;53.484;49.488;2023-05-07T00:25:31;6.04;59.79
65369;HTU21D;51970;53.484;49.488;2023-05-07T00:27:57;6.01;60.21
65369;HTU21D;51970;53.484;49.488;2023-05-07T00:30:28;5.96;60.34
65369;HTU21D;51970;53.484;49.488;2023-05-07T00:32:54;5.94;61.05
65369;HTU21D;51970;53.484;49.488;2023-05-07T00:35:21;5.92;61.70
65369;HTU21D;51970;53.484;49.488;2023-05-07T00:37:47;5.87;64.03
65369;HTU21D;51970;53.484;49.488;2023-05-07T00:40:14;5.83;65.17
65369;HTU21D;51970;53.484;49.488;2023-05-07T00:42:40;5.76;65.50
65369;HTU21D;51970;53.484;49.488;2023-05-07T00:45:07;5.68;65.87
65369;HTU21D;51970;53.484;49.488;2023-05-07T00:47:33;5.64;66.04
65369;HTU21D;51970;53.484;49.488;2023-05-07T00:50:01;5.60;66.56
65369;HTU21D;51970;53.484;49.488;2023-05-07T00:52:27;5.55;67.26
65369;HTU21D;51970;53.484;49.488;2023-05-07T00:54:54;5.50;67.73
65369;HTU21D;51970;53.484;49.488;2023-05-07T00:57:21;5.51;67.84
65369;HTU21D;51970;53.484;49.488;2023-05-07T00:59:51;5.34;68.04
65369;HTU21D;51970;53.484;49.488;2023-05-07T01:02:17;5.31;67.60
65369;HTU21D;51970;53.484;49.488;2023-05-07T01:04:43;5.28;67.00
65369;HTU21D;51970;53.484;49.488;2023-05-07T01:07:10;5.30;67.08
65369;HTU21D;51970;53.484;49.488;2023-05-07T01:09:36;5.25;66.93
65369;HTU21D;51970;53.484;49.488;2023-05-07T01:12:03;5.25;66.96
65369;HTU21D;51970;53.484;49.488;2023-05-07T01:14:30;5.25;66.53
65369;HTU21D;51970;53.484;49.488;2023-05-07T01:16:58;5.25;66.49
65369;HTU21D;51970;53.484;49.488;2023-05-07T01:19:25;5.30;66.13
65369;HTU21D;51970;53.484;49.488;2023-05-07T01:22:06;5.30;65.81
65369;HTU21D;51970;53.484;49.488;2023-05-07T01:24:34;5.33;65.60
65369;HTU21D;51970;53.484;49.488;2023-05-07T01:27:01;5.35;65.56
65369;HTU21D;51970;53.484;49.488;2023-05-07T01:29:28;5.37;65.67
65369;HTU21D;51970;53.484;49.488;2023-05-07T01:31:57;5.40;65.67
65369;HTU21D;51970;53.484;49.488;2023-05-07T01:34:25;5.41;65.82
65369;HTU21D;51970;53.484;49.488;2023-05-07T01:36:54;5.62;65.57
65369;HTU21D;51970;53.484;49.488;2023-05-07T01:39:24;6.63;62.77
65369;HTU21D;51970;53.484;49.488;2023-05-07T01:41:51;7.91;58.64
65369;HTU21D;51970;53.484;49.488;2023-05-07T01:44:18;8.77;55.86
65369;HTU21D;51970;53.484;49.488;2023-05-07T01:46:45;9.30;53.76
65369;HTU21D;51970;53.484;49.488;2023-05-07T01:49:12;9.42;53.39
65369;HTU21D;51970;53.484;49.488;2023-05-07T01:51:39;9.54;53.60
65369;HTU21D;51970;53.484;49.488;2023-05-07T01:54:05;9.92;52.46
65369;HTU21D;51970;53.484;49.488;2023-05-07T01:56:32;10.33;51.60
65369;HTU21D;51970;53.484;49.488;2023-05-07T01:58:58;10.80;50.23
65369;HTU21D;51970;53.484;49.488;2023-05-07T02:01:24;11.11;49.83
65369;HTU21D;51970;53.484;49.488;2023-05-07T02:03:51;11.45;48.60
65369;HTU21D;51970;53.484;49.488;2023-05-07T02:06:17;12.30;46.74
65369;HTU21D;51970;53.484;49.488;2023-05-07T02:08:45;12.42;46.08
65369;HTU21D;51970;53.484;49.488;2023-05-07T02:11:12;12.71;45.28
65369;HTU21D;51970;53.484;49.488;2023-05-07T02:13:38;12.66;45.51
65369;HTU21D;51970;53.484;49.488;2023-05-07T02:16:05;12.71;45.56
65369;HTU21D;51970;53.484;49.488;2023-05-07T02:18:31;12.66;45.33
65369;HTU21D;51970;53.484;49.488;2023-05-07T02:20:57;12.81;45.04
65369;HTU21D;51970;53.484;49.488;2023-05-07T02:23:24;12.36;45.67
65369;HTU21D;51970;53.484;49.488;2023-05-07T02:25:51;12.58;45.45
65369;HTU21D;51970;53.484;49.488;2023-05-07T02:28:17;12.64;45.61
65369;HTU21D;51970;53.484;49.488;2023-05-07T02:30:43;12.50;45.15
65369;HTU21D;51970;53.484;49.488;2023-05-07T02:33:09;12.74;45.06
65369;HTU21D;51970;53.484;49.488;2023-05-07T02:35:38;13.11;43.63
65369;HTU21D;51970;53.484;49.488;2023-05-07T02:38:04;13.40;43.55
65369;HTU21D;51970;53.484;49.488;2023-05-07T02:40:30;13.49;42.45
65369;HTU21D;51970;53.484;49.488;2023-05-07T02:42:59;13.07;43.17
65369;HTU21D;51970;53.484;49.488;2023-05-07T02:45:25;13.17;43.61
65369;HTU21D;51970;53.484;49.488;2023-05-07T02:47:52;13.59;42.36
65369;HTU21D;51970;53.484;49.488;2023-05-07T02:50:18;13.62;41.08
65369;HTU21D;51970;53.484;49.488;2023-05-07T02:52:44;13.66;41.45
65369;HTU21D;51970;53.484;49.488;2023-05-07T02:55:11;13.07;41.42
65369;HTU21D;51970;53.484;49.488;2023-05-07T02:57:37;12.52;42.81
65369;HTU21D;51970;53.484;49.488;2023-05-07T03:00:12;12.28;43.74
65369;HTU21D;51970;53.484;49.488;2023-05-07T03:02:38;12.80;42.16
65369;HTU21D;51970;53.484;49.488;2023-05-07T03:05:05;12.17;44.10
65369;HTU21D;51970;53.484;49.488;2023-05-07T03:07:31;12.46;43.18
65369;HTU21D;51970;53.484;49.488;2023-05-07T03:09:58;12.41;42.79
65369;HTU21D;51970;53.484;49.488;2023-05-07T03:12:24;12.51;41.76
65369;HTU21D;51970;53.484;49.488;2023-05-07T03:14:50;12.80;41.85
65369;HTU21D;51970;53.484;49.488;2023-05-07T03:17:16;12.99;40.42
65369;HTU21D;51970;53.484;49.488;2023-05-07T03:19:43;13.08;40.96
65369;HTU21D;51970;53.484;49.488;2023-05-07T03:22:09;12.89;40.35
65369;HTU21D;51970;53.484;49.488;2023-05-07T03:24:35;10.58;46.29
65369;HTU21D;51970;53.484;49.488;2023-05-07T03:27:01;9.34;50.21
65369;HTU21D;51970;53.484;49.488;2023-05-07T03:29:28;8.62;52.83
65369;HTU21D;51970;53.484;49.488;2023-05-07T03:31:54;8.20;53.73
65369;HTU21D;51970;53.484;49.488;2023-05-07T03:34:21;8.16;54.28
65369;HTU21D;51970;53.484;49.488;2023-05-07T03:36:48;8.12;54.78
65369;HTU21D;51970;53.484;49.488;2023-05-07T03:39:15;8.07;54.50
65369;HTU21D;51970;53.484;49.488;2023-05-07T03:41:41;8.01;54.59
65369;HTU21D;51970;53.484;49.488;2023-05-07T03:44:07;7.92;54.75
65369;HTU21D;51970;53.484;49.488;2023-05-07T03:46:34;8.02;55.61
65369;HTU21D;51970;53.484;49.488;2023-05-07T03:49:00;8.14;55.83
65369;HTU21D;51970;53.484;49.488;2023-05-07T03:51:27;8.26;55.30
65369;HTU21D;51970;53.484;49.488;2023-05-07T03:53:53;8.32;55.87
65369;HTU21D;51970;53.484;49.488;2023-05-07T03:56:19;8.17;55.88
65369;HTU21D;51970;53.484;49.488;2023-05-07T03:58:47;8.20;55.62
65369;HTU21D;51970;53.484;49.488;2023-05-07T04:01:13;8.27;54.53
65369;HTU21D;51970;53.484;49.488;2023-05-07T04:03:39;8.26;54.59
65369;HTU21D;51970;53.484;49.488;2023-05-07T04:06:06;8.26;53.81
65369;HTU21D;51970;53.484;49.488;2023-05-07T04:08:32;8.41;53.32
65369;HTU21D;51970;53.484;49.488;2023-05-07T04:10:59;8.50;54.17
65369;HTU21D;51970;53.484;49.488;2023-05-07T04:13:25;8.56;55.31
65369;HTU21D;51970;53.484;49.488;2023-05-07T04:15:53;8.73;53.65
65369;HTU21D;51970;53.484;49.488;2023-05-07T04:18:19;8.87;51.69
65369;HTU21D;51970;53.484;49.488;2023-05-07T04:20:46;8.89;48.28
65369;HTU21D;51970;53.484;49.488;2023-05-07T04:23:12;8.73;49.60
65369;HTU21D;51970;53.484;49.488;2023-05-07T04:25:38;8.83;50.65
65369;HTU21D;51970;53.484;49.488;2023-05-07T04:28:05;8.83;48.12
65369;HTU21D;51970;53.484;49.488;2023-05-07T04:30:31;8.85;49.15
65369;HTU21D;51970;53.484;49.488;2023-05-07T04:32:58;8.96;48.52
65369;HTU21D;51970;53.484;49.488;2023-05-07T04:35:24;9.02;48.89
65369;HTU21D;51970;53.484;49.488;2023-05-07T04:37:50;9.23;48.85
65369;HTU21D;51970;53.484;49.488;2023-05-07T04:40:17;9.51;48.22
65369;HTU21D;51970;53.484;49.488;2023-05-07T04:42:44;9.60;46.09
65369;HTU21D;51970;53.484;49.488;2023-05-07T04:45:10;9.55;44.47
65369;HTU21D;51970;53.484;49.488;2023-05-07T04:47:38;9.50;45.46
65369;HTU21D;51970;53.484;49.488;2023-05-07T04:50:06;9.52;44.58
65369;HTU21D;51970;53.484;49.488;2023-05-07T04:52:32;9.59;45.25
65369;HTU21D;51970;53.484;49.488;2023-05-07T04:54:59;9.54;46.21
65369;HTU21D;51970;53.484;49.488;2023-05-07T04:57:26;9.45;45.94
65369;HTU21D;51970;53.484;49.488;2023-05-07T04:59:54;9.49;45.32
65369;HTU21D;51970;53.484;49.488;2023-05-07T05:02:20;9.38;43.85
65369;HTU21D;51970;53.484;49.488;2023-05-07T05:04:46;9.51;44.91
65369;HTU21D;51970;53.484;49.488;2023-05-07T05:07:12;9.55;45.73
65369;HTU21D;51970;53.484;49.488;2023-05-07T05:09:39;9.80;44.68
65369;HTU21D;51970;53.484;49.488;2023-05-07T05:12:05;9.82;42.93
65369;HTU21D;51970;53.484;49.488;2023-05-07T05:14:33;9.91;43.44
65369;HTU21D;51970;53.484;49.488;2023-05-07T05:16:59;9.75;44.14
65369;HTU21D;51970;53.484;49.488;2023-05-07T05:19:25;9.91;44.06
65369;HTU21D;51970;53.484;49.488;2023-05-07T05:21:52;9.91;43.82
65369;HTU21D;51970;53.484;49.488;2023-05-07T05:24:18;9.93;43.99
65369;HTU21D;51970;53.484;49.488;2023-05-07T05:26:44;10.05;42.83
65369;HTU21D;51970;53.484;49.488;2023-05-07T05:29:11;9.86;42.61
65369;HTU21D;51970;53.484;49.488;2023-05-07T05:31:37;9.90;42.28
65369;HTU21D;51970;53.484;49.488;2023-05-07T05:34:03;9.90;42.14
65369;HTU21D;51970;53.484;49.488;2023-05-07T05:36:29;10.26;43.26
65369;HTU21D;51970;53.484;49.488;2023-05-07T05:38:56;10.03;41.74
65369;HTU21D;51970;53.484;49.488;2023-05-07T05:41:22;9.75;43.39
65369;HTU21D;51970;53.484;49.488;2023-05-07T05:43:49;9.91;41.32
65369;HTU21D;51970;53.484;49.488;2023-05-07T05:46:15;9.90;42.92
65369;HTU21D;51970;53.484;49.488;2023-05-07T05:48:42;9.66;43.99
65369;HTU21D;51970;53.484;49.488;2023-05-07T05:51:08;9.79;43.93
65369;HTU21D;51970;53.484;49.488;2023-05-07T05:53:35;10.08;41.31
65369;HTU21D;51970;53.484;49.488;2023-05-07T05:56:01;9.96;39.97
65369;HTU21D;51970;53.484;49.488;2023-05-07T05:58:28;9.61;42.57
65369;HTU21D;51970;53.484;49.488;2023-05-07T06:00:54;9.91;41.35
65369;HTU21D;51970;53.484;49.488;2023-05-07T06:03:20;9.95;39.80
65369;HTU21D;51970;53.484;49.488;2023-05-07T06:05:47;10.07;40.51
65369;HTU21D;51970;53.484;49.488;2023-05-07T06:08:13;9.88;41.53
65369;HTU21D;51970;53.484;49.488;2023-05-07T06:10:40;9.85;41.78
65369;HTU21D;51970;53.484;49.488;2023-05-07T06:13:06;9.83;40.43
65369;HTU21D;51970;53.484;49.488;2023-05-07T06:15:32;9.69;41.82
65369;HTU21D;51970;53.484;49.488;2023-05-07T06:17:59;10.03;42.35
65369;HTU21D;51970;53.484;49.488;2023-05-07T06:20:25;9.96;42.66
65369;HTU21D;51970;53.484;49.488;2023-05-07T06:22:52;9.75;42.05
65369;HTU21D;51970;53.484;49.488;2023-05-07T06:25:19;10.01;39.98
65369;HTU21D;51970;53.484;49.488;2023-05-07T06:27:45;10.44;39.68
65369;HTU21D;51970;53.484;49.488;2023-05-07T06:30:12;10.45;40.28
65369;HTU21D;51970;53.484;49.488;2023-05-07T06:32:40;10.26;37.38
65369;HTU21D;51970;53.484;49.488;2023-05-07T06:35:07;10.35;36.49
65369;HTU21D;51970;53.484;49.488;2023-05-07T06:37:33;10.52;35.85
65369;HTU21D;51970;53.484;49.488;2023-05-07T06:39:59;10.50;37.01
65369;HTU21D;51970;53.484;49.488;2023-05-07T06:42:26;10.37;37.47
65369;HTU21D;51970;53.484;49.488;2023-05-07T06:44:52;10.37;38.03
65369;HTU21D;51970;53.484;49.488;2023-05-07T06:47:18;10.48;38.44
65369;HTU21D;51970;53.484;49.488;2023-05-07T06:49:45;10.39;37.21
65369;HTU21D;51970;53.484;49.488;2023-05-07T06:52:11;10.24;38.05
65369;HTU21D;51970;53.484;49.488;2023-05-07T06:54:38;10.46;38.18
65369;HTU21D;51970;53.484;49.488;2023-05-07T06:57:04;10.86;37.09
65369;HTU21D;51970;53.484;49.488;2023-05-07T06:59:30;11.01;36.29
65369;HTU21D;51970;53.484;49.488;2023-05-07T07:01:57;11.17;37.27
65369;HTU21D;51970;53.484;49.488;2023-05-07T07:04:24;10.78;37.43
65369;HTU21D;51970;53.484;49.488;2023-05-07T07:06:53;10.70;35.26
65369;HTU21D;51970;53.484;49.488;2023-05-07T07:09:20;10.53;34.44
65369;HTU21D;51970;53.484;49.488;2023-05-07T07:11:46;9.85;35.17
65369;HTU21D;51970;53.484;49.488;2023-05-07T07:14:13;10.00;34.71
65369;HTU21D;51970;53.484;49.488;2023-05-07T07:16:39;10.33;31.51
65369;HTU21D;51970;53.484;49.488;2023-05-07T07:19:05;10.78;31.70
65369;HTU21D;51970;53.484;49.488;2023-05-07T07:21:32;11.18;31.25
65369;HTU21D;51970;53.484;49.488;2023-05-07T07:24:03;11.15;29.82
65369;HTU21D;51970;53.484;49.488;2023-05-07T07:26:29;10.89;28.52
65369;HTU21D;51970;53.484;49.488;2023-05-07T07:28:55;10.67;27.67
65369;HTU21D;51970;53.484;49.488;2023-05-07T07:31:22;10.50;30.31
65369;HTU21D;51970;53.484;49.488;2023-05-07T07:33:48;10.57;32.21
65369;HTU21D;51970;53.484;49.488;2023-05-07T07:36:16;10.83;31.59
65369;HTU21D;51970;53.484;49.488;2023-05-07T07:38:42;10.89;31.47
65369;HTU21D;51970;53.484;49.488;2023-05-07T07:41:08;10.95;32.44
65369;HTU21D;51970;53.484;49.488;2023-05-07T07:43:35;10.90;32.22
65369;HTU21D;51970;53.484;49.488;2023-05-07T07:46:01;10.74;32.51
65369;HTU21D;51970;53.484;49.488;2023-05-07T07:48:28;10.77;32.32
65369;HTU21D;51970;53.484;49.488;2023-05-07T07:50:54;10.98;33.25
65369;HTU21D;51970;53.484;49.488;2023-05-07T07:53:20;10.98;32.14
65369;HTU21D;51970;53.484;49.488;2023-05-07T07:55:47;10.85;31.64
65369;HTU21D;51970;53.484;49.488;2023-05-07T07:58:13;10.41;31.77
65369;HTU21D;51970;53.484;49.488;2023-05-07T08:00:39;10.56;32.46
65369;HTU21D;51970;53.484;49.488;2023-05-07T08:03:09;10.48;31.74
65369;HTU21D;51970;53.484;49.488;2023-05-07T08:05:35;10.48;31.76
65369;HTU21D;51970;53.484;49.488;2023-05-07T08:08:02;10.64;31.83
65369;HTU21D;51970;53.484;49.488;2023-05-07T08:10:28;10.80;31.82
65369;HTU21D;51970;53.484;49.488;2023-05-07T08:12:55;10.70;32.06
65369;HTU21D;51970;53.484;49.488;2023-05-07T08:15:21;10.78;32.45
65369;HTU21D;51970;53.484;49.488;2023-05-07T08:17:47;11.03;31.95
65369;HTU21D;51970;53.484;49.488;2023-05-07T08:20:14;10.89;32.09
65369;HTU21D;51970;53.484;49.488;2023-05-07T08:22:40;10.73;32.70
65369;HTU21D;51970;53.484;49.488;2023-05-07T08:25:07;10.64;33.60
65369;HTU21D;51970;53.484;49.488;2023-05-07T08:27:33;10.82;33.19
65369;HTU21D;51970;53.484;49.488;2023-05-07T08:30:00;10.88;33.05
65369;HTU21D;51970;53.484;49.488;2023-05-07T08:32:26;11.23;31.93
65369;HTU21D;51970;53.484;49.488;2023-05-07T08:34:53;11.38;31.38
65369;HTU21D;51970;53.484;49.488;2023-05-07T08:37:20;11.07;32.49
65369;HTU21D;51970;53.484;49.488;2023-05-07T08:39:46;11.28;32.30
65369;HTU21D;51970;53.484;49.488;2023-05-07T08:42:16;10.55;33.17
65369;HTU21D;51970;53.484;49.488;2023-05-07T08:44:45;10.88;33.18
65369;HTU21D;51970;53.484;49.488;2023-05-07T08:47:14;11.27;33.13
65369;HTU21D;51970;53.484;49.488;2023-05-07T08:49:41;11.75;32.22
65369;HTU21D;51970;53.484;49.488;2023-05-07T08:52:08;12.10;31.54
65369;HTU21D;51970;53.484;49.488;2023-05-07T08:54:36;11.23;32.33
65369;HTU21D;51970;53.484;49.488;2023-05-07T08:57:03;10.83;33.36
65369;HTU21D;51970;53.484;49.488;2023-05-07T08:59:29;10.96;33.27
65369;HTU21D;51970;53.484;49.488;2023-05-07T09:01:55;11.19;33.15
65369;HTU21D;51970;53.484;49.488;2023-05-07T09:04:22;11.84;32.47
65369;HTU21D;51970;53.484;49.488;2023-05-07T09:06:48;11.99;31.64
65369;HTU21D;51970;53.484;49.488;2023-05-07T09:09:17;12.11;30.67
65369;HTU21D;51970;53.484;49.488;2023-05-07T09:11:46;11.98;31.55
65369;HTU21D;51970;53.484;49.488;2023-05-07T09:14:13;11.75;31.51
65369;HTU21D;51970;53.484;49.488;2023-05-07T09:16:39;11.96;31.87
65369;HTU21D;51970;53.484;49.488;2023-05-07T09:19:05;12.07;31.10
65369;HTU21D;51970;53.484;49.488;2023-05-07T09:21:36;12.10;31.61
65369;HTU21D;51970;53.484;49.488;2023-05-07T09:24:03;12.26;30.99
65369;HTU21D;51970;53.484;49.488;2023-05-07T09:26:30;12.67;30.83
65369;HTU21D;51970;53.484;49.488;2023-05-07T09:28:58;12.56;30.58
65369;HTU21D;51970;53.484;49.488;2023-05-07T09:31:25;11.89;31.48
65369;HTU21D;51970;53.484;49.488;2023-05-07T09:33:52;11.18;32.64
65369;HTU21D;51970;53.484;49.488;2023-05-07T09:36:19;10.93;33.34
65369;HTU21D;51970;53.484;49.488;2023-05-07T09:38:45;10.81;33.28
65369;HTU21D;51970;53.484;49.488;2023-05-07T09:41:13;10.70;33.72
65369;HTU21D;51970;53.484;49.488;2023-05-07T09:43:40;10.67;33.71
65369;HTU21D;51970;53.484;49.488;2023-05-07T09:46:11;10.87;33.85
65369;HTU21D;51970;53.484;49.488;2023-05-07T09:48:39;10.64;33.87
65369;HTU21D;51970;53.484;49.488;2023-05-07T09:53:43;10.37;35.38
65369;HTU21D;51970;53.484;49.488;2023-05-07T09:56:09;10.74;33.44
65369;HTU21D;51970;53.484;49.488;2023-05-07T09:58:37;11.15;33.33
65369;HTU21D;51970;53.484;49.488;2023-05-07T10:01:05;11.10;33.02
65369;HTU21D;51970;53.484;49.488;2023-05-07T10:03:33;11.02;33.76
65369;HTU21D;51970;53.484;49.488;2023-05-07T10:06:03;10.82;33.72
65369;HTU21D;51970;53.484;49.488;2023-05-07T10:08:31;11.13;33.27
65369;HTU21D;51970;53.484;49.488;2023-05-07T10:10:58;11.67;31.92
65369;HTU21D;51970;53.484;49.488;2023-05-07T10:13:25;12.01;31.64
65369;HTU21D;51970;53.484;49.488;2023-05-07T10:15:52;12.18;32.27
65369;HTU21D;51970;53.484;49.488;2023-05-07T10:18:20;11.93;30.90
65369;HTU21D;51970;53.484;49.488;2023-05-07T10:20:51;12.04;31.30
65369;HTU21D;51970;53.484;49.488;2023-05-07T10:23:23;11.78;30.89
65369;HTU21D;51970;53.484;49.488;2023-05-07T10:25:50;11.34;31.52
65369;HTU21D;51970;53.484;49.488;2023-05-07T10:28:17;11.13;32.12
65369;HTU21D;51970;53.484;49.488;2023-05-07T10:33:42;11.94;30.13
65369;HTU21D;51970;53.484;49.488;2023-05-07T10:36:11;11.99;30.03
65369;HTU21D;51970;53.484;49.488;2023-05-07T10:38:39;11.97;30.48
65369;HTU21D;51970;53.484;49.488;2023-05-07T10:41:06;12.10;30.59
65369;HTU21D;51970;53.484;49.488;2023-05-07T10:43:43;12.14;30.15
65369;HTU21D;51970;53.484;49.488;2023-05-07T10:46:18;12.26;30.77
65369;HTU21D;51970;53.484;49.488;2023-05-07T10:51:27;11.12;31.93
65369;HTU21D;51970;53.484;49.488;2023-05-07T10:56:43;11.04;33.04
65369;HTU21D;51970;53.484;49.488;2023-05-07T11:02:03;11.68;32.32
65369;HTU21D;51970;53.484;49.488;2023-05-07T11:04:32;12.13;29.95
65369;HTU21D;51970;53.484;49.488;2023-05-07T11:15:10;11.47;31.73
65369;HTU21D;51970;53.484;49.488;2023-05-07T11:17:58;11.88;30.97
65369;HTU21D;51970;53.484;49.488;2023-05-07T11:20:53;12.37;30.32
65369;HTU21D;51970;53.484;49.488;2023-05-07T11:26:04;12.28;29.96
65369;HTU21D;51970;53.484;49.488;2023-05-07T11:28:44;12.49;29.61
65369;HTU21D;51970;53.484;49.488;2023-05-07T11:31:11;12.49;28.30
65369;HTU21D;51970;53.484;49.488;2023-05-07T11:33:38;12.33;29.01
65369;HTU21D;51970;53.484;49.488;2023-05-07T11:36:05;12.26;28.35
65369;HTU21D;51970;53.484;49.488;2023-05-07T11:38:37;12.34;28.91
65369;HTU21D;51970;53.484;49.488;2023-05-07T11:41:04;12.30;29.00
65369;HTU21D;51970;53.484;49.488;2023-05-07T11:43:32;12.30;29.26
65369;HTU21D;51970;53.484;49.488;2023-05-07T11:46:06;12.36;29.79
65369;HTU21D;51970;53.484;49.488;2023-05-07T11:48:33;12.22;29.35
65369;HTU21D;51970;53.484;49.488;2023-05-07T11:51:05;11.62;30.76
65369;HTU21D;51970;53.484;49.488;2023-05-07T11:53:36;11.83;30.38
65369;HTU21D;51970;53.484;49.488;2023-05-07T11:56:07;11.79;29.95
65369;HTU21D;51970;53.484;49.488;2023-05-07T11:58:34;11.73;30.71
65369;HTU21D;51970;53.484;49.488;2023-05-07T12:01:01;11.55;31.25
65369;HTU21D;51970;53.484;49.488;2023-05-07T12:03:28;11.72;31.32
65369;HTU21D;51970;53.484;49.488;2023-05-07T12:05:54;12.16;30.73
65369;HTU21D;51970;53.484;49.488;2023-05-07T12:08:21;12.69;29.44
65369;HTU21D;51970;53.484;49.488;2023-05-07T12:10:50;12.10;29.35
65369;HTU21D;51970;53.484;49.488;2023-05-07T12:13:17;12.26;30.13
65369;HTU21D;51970;53.484;49.488;2023-05-07T12:15:44;12.28;29.46
65369;HTU21D;51970;53.484;49.488;2023-05-07T12:18:11;12.37;29.19
65369;HTU21D;51970;53.484;49.488;2023-05-07T12:20:38;12.21;29.52
65369;HTU21D;51970;53.484;49.488;2023-05-07T12:23:05;12.11;29.39
65369;HTU21D;51970;53.484;49.488;2023-05-07T12:25:34;11.87;29.94
65369;HTU21D;51970;53.484;49.488;2023-05-07T12:28:01;11.45;30.46
65369;HTU21D;51970;53.484;49.488;2023-05-07T12:30:28;11.42;30.64
65369;HTU21D;51970;53.484;49.488;2023-05-07T12:32:54;11.56;30.31
65369;HTU21D;51970;53.484;49.488;2023-05-07T12:35:40;11.86;30.20
65369;HTU21D;51970;53.484;49.488;2023-05-07T12:38:12;11.79;30.55
65369;HTU21D;51970;53.484;49.488;2023-05-07T12:40:41;12.01;30.06
65369;HTU21D;51970;53.484;49.488;2023-05-07T12:43:15;12.14;30.22
65369;HTU21D;51970;53.484;49.488;2023-05-07T12:45:43;11.86;30.44
65369;HTU21D;51970;53.484;49.488;2023-05-07T12:48:10;11.74;29.60
65369;HTU21D;51970;53.484;49.488;2023-05-07T12:50:37;11.71;29.43
65369;HTU21D;51970;53.484;49.488;2023-05-07T12:53:07;12.01;29.41
65369;HTU21D;51970;53.484;49.488;2023-05-07T12:55:41;12.10;29.34
65369;HTU21D;51970;53.484;49.488;2023-05-07T12:58:08;11.98;30.00
65369;HTU21D;51970;53.484;49.488;2023-05-07T13:00:40;11.77;30.26
65369;HTU21D;51970;53.484;49.488;2023-05-07T13:03:09;11.61;30.77
65369;HTU21D;51970;53.484;49.488;2023-05-07T13:05:35;11.67;30.67
65369;HTU21D;51970;53.484;49.488;2023-05-07T13:08:02;11.59;30.67
65369;HTU21D;51970;53.484;49.488;2023-05-07T13:10:28;11.62;31.26
65369;HTU21D;51970;53.484;49.488;2023-05-07T13:12:54;11.45;30.54
65369;HTU21D;51970;53.484;49.488;2023-05-07T13:15:21;11.20;30.70
65369;HTU21D;51970;53.484;49.488;2023-05-07T13:17:47;11.07;30.83
65369;HTU21D;51970;53.484;49.488;2023-05-07T13:20:14;10.95;30.67
65369;HTU21D;51970;53.484;49.488;2023-05-07T13:22:41;11.08;30.83
65369;HTU21D;51970;53.484;49.488;2023-05-07T13:25:08;11.12;31.09
65369;HTU21D;51970;53.484;49.488;2023-05-07T13:27:34;11.04;30.92
65369;HTU21D;51970;53.484;49.488;2023-05-07T13:30:04;11.07;31.48
65369;HTU21D;51970;53.484;49.488;2023-05-07T13:32:31;11.40;30.80
65369;HTU21D;51970;53.484;49.488;2023-05-07T13:34:57;11.20;30.75
65369;HTU21D;51970;53.484;49.488;2023-05-07T13:37:24;11.05;30.80
65369;HTU21D;51970;53.484;49.488;2023-05-07T13:39:50;10.95;31.81
65369;HTU21D;51970;53.484;49.488;2023-05-07T13:42:17;10.94;32.06
65369;HTU21D;51970;53.484;49.488;2023-05-07T13:44:43;10.86;32.30
65369;HTU21D;51970;53.484;49.488;2023-05-07T13:47:10;10.86;32.15
65369;HTU21D;51970;53.484;49.488;2023-05-07T13:49:37;10.78;31.70
65369;HTU21D;51970;53.484;49.488;2023-05-07T13:52:03;10.83;32.63
65369;HTU21D;51970;53.484;49.488;2023-05-07T13:54:30;10.83;32.09
65369;HTU21D;51970;53.484;49.488;2023-05-07T13:56:56;10.84;32.35
65369;HTU21D;51970;53.484;49.488;2023-05-07T13:59:22;11.07;31.84
65369;HTU21D;51970;53.484;49.488;2023-05-07T14:01:49;11.07;32.29
65369;HTU21D;51970;53.484;49.488;2023-05-07T14:04:15;11.11;32.61
65369;HTU21D;51970;53.484;49.488;2023-05-07T14:06:41;11.10;31.86
65369;HTU21D;51970;53.484;49.488;2023-05-07T14:09:08;11.42;31.22
65369;HTU21D;51970;53.484;49.488;2023-05-07T14:11:34;11.85;29.77
65369;HTU21D;51970;53.484;49.488;2023-05-07T14:14:01;11.79;30.38
65369;HTU21D;51970;53.484;49.488;2023-05-07T14:16:27;12.11;29.84
65369;HTU21D;51970;53.484;49.488;2023-05-07T14:18:53;12.41;30.10
65369;HTU21D;51970;53.484;49.488;2023-05-07T14:21:20;11.88;30.33
65369;HTU21D;51970;53.484;49.488;2023-05-07T14:23:46;12.26;29.42
65369;HTU21D;51970;53.484;49.488;2023-05-07T14:26:13;12.51;29.09
65369;HTU21D;51970;53.484;49.488;2023-05-07T14:28:40;12.78;28.30
65369;HTU21D;51970;53.484;49.488;2023-05-07T14:31:12;12.92;28.10
65369;HTU21D;51970;53.484;49.488;2023-05-07T14:33:38;12.86;28.00
65369;HTU21D;51970;53.484;49.488;2023-05-07T14:36:05;12.44;28.40
65369;HTU21D;51970;53.484;49.488;2023-05-07T14:38:33;12.43;28.62
65369;HTU21D;51970;53.484;49.488;2023-05-07T14:41:00;12.45;28.38
65369;HTU21D;51970;53.484;49.488;2023-05-07T14:43:26;12.49;28.61
65369;HTU21D;51970;53.484;49.488;2023-05-07T14:45:53;12.29;28.74
65369;HTU21D;51970;53.484;49.488;2023-05-07T14:48:19;11.31;30.86
65369;HTU21D;51970;53.484;49.488;2023-05-07T14:50:49;10.86;31.73
65369;HTU21D;51970;53.484;49.488;2023-05-07T14:53:15;10.69;32.73
65369;HTU21D;51970;53.484;49.488;2023-05-07T14:55:42;10.54;32.41
65369;HTU21D;51970;53.484;49.488;2023-05-07T14:58:08;10.34;33.09
65369;HTU21D;51970;53.484;49.488;2023-05-07T15:00:35;10.18;32.75
65369;HTU21D;51970;53.484;49.488;2023-05-07T15:03:07;10.08;32.83
65369;HTU21D;51970;53.484;49.488;2023-05-07T15:05:36;10.06;32.88
65369;HTU21D;51970;53.484;49.488;2023-05-07T15:08:02;10.08;33.51
65369;HTU21D;51970;53.484;49.488;2023-05-07T15:10:29;10.09;33.19
65369;HTU21D;51970;53.484;49.488;2023-05-07T15:12:55;10.08;33.43
65369;HTU21D;51970;53.484;49.488;2023-05-07T15:15:21;10.11;33.70
65369;HTU21D;51970;53.484;49.488;2023-05-07T15:17:48;10.06;33.05
65369;HTU21D;51970;53.484;49.488;2023-05-07T15:20:14;9.98;33.47
65369;HTU21D;51970;53.484;49.488;2023-05-07T15:22:41;9.86;33.31
65369;HTU21D;51970;53.484;49.488;2023-05-07T15:25:10;9.82;33.76
65369;HTU21D;51970;53.484;49.488;2023-05-07T15:27:37;9.79;34.02
65369;HTU21D;51970;53.484;49.488;2023-05-07T15:30:04;9.75;34.21
65369;HTU21D;51970;53.484;49.488;2023-05-07T15:32:30;9.66;34.23